createdAt,value
2023-01-20T00:01:40.100Z,7.80
2023-01-20T00:04:07.265Z,8.10
2023-01-20T00:06:34.600Z,7.73
2023-01-20T00:09:03.741Z,7.77
2023-01-20T00:11:31.523Z,7.53
2023-01-20T00:14:01.234Z,8.10
2023-01-20T00:16:29.378Z,8.43
2023-01-20T00:18:56.682Z,8.20
2023-01-20T00:21:24.101Z,7.50
2023-01-20T00:23:51.263Z,7.97
2023-01-20T00:26:21.183Z,7.83
2023-01-20T00:28:49.700Z,8.03
2023-01-20T00:31:21.004Z,7.80
2023-01-20T00:33:50.283Z,7.70
2023-01-20T00:36:18.629Z,7.50
2023-01-20T00:38:45.888Z,7.30
2023-01-20T00:41:13.302Z,7.57
2023-01-20T00:43:40.715Z,7.30
2023-01-20T00:46:08.251Z,6.73
2023-01-20T00:48:36.142Z,6.77
2023-01-20T00:51:04.421Z,7.07
2023-01-20T00:53:31.619Z,6.27
2023-01-20T00:55:58.778Z,7.10
2023-01-20T00:58:26.423Z,8.00
2023-01-20T01:00:55.225Z,7.57
2023-01-20T01:03:22.992Z,7.13
2023-01-20T01:05:50.270Z,7.10
2023-01-20T01:08:17.456Z,7.67
2023-01-20T01:10:44.726Z,7.50
2023-01-20T01:13:12.005Z,7.50
2023-01-20T01:15:39.248Z,7.57
2023-01-20T01:18:06.455Z,7.83
2023-01-20T01:20:33.629Z,7.17
2023-01-20T01:23:00.780Z,6.70
2023-01-20T01:25:28.018Z,7.13
2023-01-20T01:27:55.172Z,6.67
2023-01-20T01:30:22.423Z,7.30
2023-01-20T01:32:49.615Z,6.80
2023-01-20T01:35:17.104Z,7.53
2023-01-20T01:37:44.408Z,6.40
2023-01-20T01:40:11.904Z,7.00
2023-01-20T01:42:40.850Z,7.00
2023-01-20T01:45:13.107Z,7.33
2023-01-20T01:47:45.989Z,6.63
2023-01-20T01:50:19.131Z,7.40
2023-01-20T01:52:50.117Z,6.50
2023-01-20T01:55:18.945Z,7.23
2023-01-20T01:57:47.831Z,7.23
2023-01-20T02:00:15.429Z,7.20
2023-01-20T02:02:45.462Z,6.93
2023-01-20T02:05:14.729Z,6.23
2023-01-20T02:07:45.401Z,6.43
2023-01-20T02:10:13.659Z,6.67
2023-01-20T02:12:42.397Z,6.87
2023-01-20T02:15:09.909Z,7.20
2023-01-20T02:17:59.729Z,7.20
2023-01-20T02:20:52.816Z,7.83
2023-01-20T02:23:34.931Z,7.30
2023-01-20T02:26:47.372Z,7.10
2023-01-20T02:29:51.474Z,6.90
2023-01-20T02:32:46.587Z,6.50
2023-01-20T02:35:26.620Z,6.87
2023-01-20T02:38:02.973Z,6.53
2023-01-20T02:40:41.090Z,6.57
2023-01-20T02:43:25.157Z,6.67
2023-01-20T02:45:58.086Z,6.70
2023-01-20T02:48:34.710Z,6.93
2023-01-20T02:51:13.400Z,7.23
2023-01-20T02:53:49.396Z,6.80
2023-01-20T02:56:17.984Z,6.87
2023-01-20T02:58:53.874Z,6.57
2023-01-20T03:01:32.909Z,7.00
2023-01-20T03:04:02.969Z,6.53
2023-01-20T03:06:34.564Z,6.23
2023-01-20T03:09:06.991Z,6.90
2023-01-20T03:11:38.248Z,6.70
2023-01-20T03:14:12.409Z,7.40
2023-01-20T03:16:40.923Z,7.03
2023-01-20T03:19:09.454Z,6.83
2023-01-20T03:21:36.912Z,6.97
2023-01-20T03:24:05.330Z,7.20
2023-01-20T03:26:33.577Z,7.47
2023-01-20T03:29:07.169Z,7.47
2023-01-20T03:31:41.526Z,7.33
2023-01-20T03:34:13.235Z,7.33
2023-01-20T03:36:42.866Z,6.97
2023-01-20T03:39:10.846Z,6.80
2023-01-20T03:41:56.099Z,7.10
2023-01-20T03:44:57.008Z,6.70
2023-01-20T03:47:46.359Z,6.43
2023-01-20T03:50:25.606Z,6.53
2023-01-20T03:53:05.751Z,7.73
2023-01-20T03:55:47.470Z,6.57
2023-01-20T03:58:20.624Z,6.77
2023-01-20T04:00:50.917Z,6.80
2023-01-20T04:03:31.146Z,6.60
2023-01-20T04:06:02.657Z,6.70
2023-01-20T04:08:34.635Z,6.87
2023-01-20T04:11:05.834Z,7.23
2023-01-20T04:13:33.435Z,6.27
2023-01-20T04:16:03.280Z,6.40
2023-01-20T04:18:30.696Z,6.47
2023-01-20T04:21:04.108Z,5.97
2023-01-20T04:23:36.346Z,6.37
2023-01-20T04:26:03.538Z,6.27
2023-01-20T04:28:31.474Z,5.50
2023-01-20T04:30:59.003Z,6.13
2023-01-20T04:33:26.464Z,5.63
2023-01-20T04:35:53.618Z,6.13
2023-01-20T04:38:20.781Z,6.03
2023-01-20T04:40:48.042Z,6.30
2023-01-20T04:43:15.497Z,6.40
2023-01-20T04:45:42.749Z,6.70
2023-01-20T04:48:10.186Z,6.97
2023-01-20T04:50:41.188Z,7.23
2023-01-20T04:53:13.488Z,6.53
2023-01-20T04:55:40.668Z,6.70
2023-01-20T04:58:09.462Z,7.07
2023-01-20T05:00:36.636Z,7.33
2023-01-20T05:03:03.895Z,7.67
2023-01-20T05:05:31.049Z,7.30
2023-01-20T05:07:59.569Z,7.87
2023-01-20T05:10:26.756Z,7.97
2023-01-20T05:12:53.914Z,8.30
2023-01-20T05:15:21.063Z,8.63
2023-01-20T05:17:48.224Z,8.43
2023-01-20T05:20:15.766Z,9.40
2023-01-20T05:22:42.927Z,9.30
2023-01-20T05:25:10.160Z,10.10
2023-01-20T05:27:37.540Z,10.00
2023-01-20T05:30:06.355Z,9.33
2023-01-20T05:32:33.520Z,9.90
2023-01-20T05:35:00.672Z,10.80
2023-01-20T05:37:27.926Z,11.03
2023-01-20T05:39:55.183Z,11.33
2023-01-20T05:42:22.890Z,10.43
2023-01-20T05:44:50.125Z,11.33
2023-01-20T05:47:17.400Z,12.07
2023-01-20T05:49:44.631Z,11.83
2023-01-20T05:52:11.977Z,12.67
2023-01-20T05:54:39.144Z,12.10
2023-01-20T05:57:06.346Z,12.60
2023-01-20T05:59:33.587Z,13.00
2023-01-20T06:02:00.773Z,13.03
2023-01-20T06:04:27.986Z,12.03
2023-01-20T06:06:55.177Z,12.27
2023-01-20T06:09:22.436Z,12.17
2023-01-20T06:11:51.107Z,12.50
2023-01-20T06:14:18.358Z,14.47
2023-01-20T06:16:45.577Z,14.00
2023-01-20T06:19:12.854Z,13.67
2023-01-20T06:21:40.164Z,13.30
2023-01-20T06:24:07.557Z,11.90
2023-01-20T06:26:34.727Z,11.37
2023-01-20T06:29:01.935Z,11.20
2023-01-20T06:31:29.200Z,11.20
2023-01-20T06:33:56.521Z,11.23
2023-01-20T06:36:24.509Z,10.87
2023-01-20T06:38:52.909Z,10.30
2023-01-20T06:41:21.242Z,10.83
2023-01-20T06:43:50.059Z,10.30
2023-01-20T06:46:17.825Z,9.43
2023-01-20T06:48:45.747Z,9.00
2023-01-20T06:51:15.533Z,10.37
2023-01-20T06:53:43.039Z,9.73
2023-01-20T06:56:12.547Z,9.63
2023-01-20T06:58:40.537Z,9.53
2023-01-20T07:01:12.513Z,10.07
2023-01-20T07:03:44.783Z,9.87
2023-01-20T07:06:19.412Z,9.20
2023-01-20T07:08:46.806Z,8.30
2023-01-20T07:11:13.994Z,8.97
2023-01-20T07:13:41.262Z,8.83
2023-01-20T07:16:11.519Z,9.17
2023-01-20T07:18:40.312Z,9.20
2023-01-20T07:21:09.139Z,8.97
2023-01-20T07:23:36.299Z,9.87
2023-01-20T07:26:05.507Z,9.63
2023-01-20T07:28:33.942Z,8.80
2023-01-20T07:31:05.571Z,9.40
2023-01-20T07:33:33.211Z,9.30
2023-01-20T07:36:01.132Z,9.50
2023-01-20T07:38:30.488Z,9.30
2023-01-20T07:41:04.829Z,9.50
2023-01-20T07:43:34.093Z,9.40
2023-01-20T07:46:03.739Z,9.40
2023-01-20T07:48:33.006Z,10.67
2023-01-20T07:51:06.406Z,9.37
2023-01-20T07:53:38.869Z,9.90
2023-01-20T07:56:11.370Z,9.60
2023-01-20T07:58:39.526Z,9.57
2023-01-20T08:01:12.577Z,10.57
2023-01-20T08:03:39.931Z,9.77
2023-01-20T08:06:09.677Z,10.43
2023-01-20T08:08:37.105Z,10.80
2023-01-20T08:11:05.969Z,10.83
2023-01-20T08:13:33.264Z,10.60
2023-01-20T08:16:02.540Z,9.97
2023-01-20T08:18:30.122Z,9.33
2023-01-20T08:20:57.312Z,10.00
2023-01-20T08:23:24.575Z,10.33
2023-01-20T08:26:03.669Z,10.17
2023-01-20T08:28:31.763Z,10.30
2023-01-20T08:31:09.988Z,10.30
2023-01-20T08:33:37.871Z,10.83
2023-01-20T08:36:07.528Z,10.80
2023-01-20T08:38:35.787Z,10.73
2023-01-20T08:41:07.223Z,10.57
2023-01-20T08:43:34.473Z,10.63
2023-01-20T08:46:07.258Z,9.70
2023-01-20T08:48:35.680Z,10.87
2023-01-20T08:51:15.699Z,10.67
2023-01-20T08:53:43.453Z,9.90
2023-01-20T08:56:11.889Z,10.40
2023-01-20T08:58:39.896Z,9.43
2023-01-20T09:01:11.863Z,10.27
2023-01-20T09:03:39.963Z,9.67
2023-01-20T09:06:08.435Z,10.37
2023-01-20T09:08:37.149Z,9.63
2023-01-20T09:11:11.255Z,9.87
2023-01-20T09:13:38.572Z,9.83
2023-01-20T09:16:06.120Z,10.00
2023-01-20T09:18:35.192Z,9.20
2023-01-20T09:21:06.592Z,9.50
2023-01-20T09:23:35.070Z,9.80
2023-01-20T09:26:04.711Z,9.37
2023-01-20T09:28:32.365Z,10.27
2023-01-20T09:31:07.579Z,9.63
2023-01-20T09:33:38.215Z,9.57
2023-01-20T09:36:08.718Z,9.83
2023-01-20T09:38:54.896Z,9.23
2023-01-20T09:41:49.335Z,9.30
2023-01-20T09:44:25.089Z,9.30
2023-01-20T09:47:12.184Z,7.93
2023-01-20T09:50:33.339Z,7.83
2023-01-20T09:53:06.531Z,5.27
2023-01-20T09:55:52.091Z,6.17
2023-01-20T09:58:29.979Z,6.13
2023-01-20T10:01:30.884Z,6.13
2023-01-20T10:04:24.092Z,6.57
2023-01-20T10:07:03.179Z,6.97
2023-01-20T10:09:35.696Z,7.23
2023-01-20T10:12:30.226Z,7.33
2023-01-20T10:15:09.762Z,6.40
2023-01-20T10:17:50.058Z,6.50
2023-01-20T10:20:22.630Z,7.37
2023-01-20T10:23:00.999Z,6.67
2023-01-20T10:25:47.510Z,6.60
2023-01-20T10:28:22.387Z,6.93
2023-01-20T10:30:49.777Z,6.27
2023-01-20T10:33:33.032Z,6.13
2023-01-20T10:36:00.656Z,6.50
2023-01-20T10:38:52.477Z,6.70
2023-01-20T10:41:27.140Z,6.47
2023-01-20T10:43:57.634Z,6.30
2023-01-20T10:46:46.131Z,6.37
2023-01-20T10:49:57.731Z,5.50
2023-01-20T10:52:40.088Z,6.53
2023-01-20T10:55:24.662Z,4.90
2023-01-20T10:57:56.882Z,5.93
2023-01-20T11:00:27.105Z,5.40
2023-01-20T11:02:59.177Z,5.80
2023-01-20T11:05:30.040Z,6.00
2023-01-20T11:07:59.565Z,6.10
2023-01-20T11:10:29.282Z,5.83
2023-01-20T11:13:02.166Z,5.43
2023-01-20T11:15:46.119Z,5.70
2023-01-20T11:18:16.118Z,5.00
2023-01-20T11:20:50.110Z,5.90
2023-01-20T11:23:38.326Z,6.03
2023-01-20T11:26:20.441Z,6.57
2023-01-20T11:28:47.839Z,6.33
2023-01-20T11:31:15.956Z,6.37
2023-01-20T11:34:00.948Z,5.17
2023-01-20T11:36:28.855Z,4.60
2023-01-20T11:38:57.468Z,4.30
2023-01-20T11:41:27.910Z,3.90
2023-01-20T11:44:00.217Z,3.87
2023-01-20T11:46:32.679Z,3.53
2023-01-20T11:49:18.507Z,3.60
2023-01-20T11:51:57.344Z,4.27
2023-01-20T11:54:29.262Z,3.90
2023-01-20T11:57:07.521Z,4.07
2023-01-20T11:59:36.813Z,3.87
2023-01-20T12:02:09.756Z,4.77
2023-01-20T12:04:52.918Z,4.90
2023-01-20T12:07:24.548Z,4.60
2023-01-20T12:09:55.552Z,4.70
2023-01-20T12:12:38.046Z,4.80
2023-01-20T12:15:10.377Z,5.27
2023-01-20T12:17:56.614Z,5.03
2023-01-20T12:20:53.969Z,5.37
2023-01-20T12:23:46.205Z,5.07
2023-01-20T12:26:20.209Z,5.77
2023-01-20T12:29:11.891Z,6.23
2023-01-20T12:31:39.549Z,7.27
2023-01-20T12:34:14.273Z,13.27
2023-01-20T12:37:03.394Z,15.70
2023-01-20T12:39:57.833Z,7.33
2023-01-20T12:42:56.072Z,10.97
2023-01-20T12:45:44.048Z,7.50
2023-01-20T12:48:51.396Z,7.53
2023-01-20T12:51:50.779Z,7.90
2023-01-20T12:54:49.106Z,7.43
2023-01-20T12:57:50.948Z,9.03
2023-01-20T13:00:36.609Z,8.13
2023-01-20T13:03:28.929Z,8.47
2023-01-20T13:06:35.372Z,9.27
2023-01-20T13:09:19.755Z,10.77
2023-01-20T13:11:49.931Z,10.17
2023-01-20T13:14:33.148Z,10.93
2023-01-20T13:17:13.357Z,12.03
2023-01-20T13:19:42.790Z,11.30
2023-01-20T13:22:15.730Z,11.63
2023-01-20T13:24:46.411Z,11.70
2023-01-20T13:27:15.235Z,12.13
2023-01-20T13:29:51.339Z,12.97
2023-01-20T13:32:28.552Z,12.73
2023-01-20T13:34:56.918Z,13.13
2023-01-20T13:37:24.114Z,13.50
2023-01-20T13:39:54.487Z,13.43
2023-01-20T13:42:36.649Z,13.10
2023-01-20T13:45:13.434Z,13.37
2023-01-20T13:47:52.610Z,13.13
2023-01-20T13:50:30.337Z,14.47
2023-01-20T13:52:57.758Z,14.33
2023-01-20T13:55:49.837Z,14.23
2023-01-20T13:58:33.864Z,13.97
2023-01-20T14:01:04.554Z,13.43
2023-01-20T14:03:39.436Z,13.80
2023-01-20T14:06:14.420Z,14.50
2023-01-20T14:08:47.673Z,13.90
2023-01-20T14:11:23.700Z,15.30
2023-01-20T14:13:56.780Z,15.83
2023-01-20T14:16:41.498Z,14.87
2023-01-20T14:19:32.154Z,13.97
2023-01-20T14:22:04.381Z,14.83
2023-01-20T14:24:37.965Z,15.00
2023-01-20T14:27:13.662Z,15.07
2023-01-20T14:29:40.869Z,14.43
2023-01-20T14:32:35.188Z,15.77
2023-01-20T14:35:13.232Z,15.60
2023-01-20T14:37:41.238Z,15.57
2023-01-20T14:40:11.382Z,15.23
2023-01-20T14:42:39.815Z,16.30
2023-01-20T14:45:19.896Z,15.90
2023-01-20T14:47:48.201Z,18.37
2023-01-20T14:50:17.911Z,16.10
2023-01-20T14:52:48.780Z,14.70
2023-01-20T14:55:36.385Z,16.70
2023-01-20T14:58:16.534Z,16.77
2023-01-20T15:00:49.059Z,15.83
2023-01-20T15:03:26.046Z,16.77
2023-01-20T15:06:05.266Z,16.93
2023-01-20T15:08:32.377Z,17.97
2023-01-20T15:11:23.642Z,18.23
2023-01-20T15:14:05.843Z,20.53
2023-01-20T15:16:36.030Z,18.20
2023-01-20T15:19:16.311Z,18.43
2023-01-20T15:21:54.248Z,17.67
2023-01-20T15:24:22.532Z,18.40
2023-01-20T15:26:52.226Z,17.27
2023-01-20T15:29:23.605Z,18.00
2023-01-20T15:31:51.557Z,18.20
2023-01-20T15:34:19.863Z,17.67
2023-01-20T15:36:48.436Z,17.90
2023-01-20T15:39:17.628Z,17.77
2023-01-20T15:41:45.554Z,18.47
2023-01-20T15:44:12.776Z,18.63
2023-01-20T15:46:41.155Z,18.77
2023-01-20T15:49:12.242Z,18.37
2023-01-20T15:51:39.558Z,19.87
2023-01-20T15:54:07.383Z,20.03
2023-01-20T15:56:35.851Z,18.37
2023-01-20T15:59:03.219Z,19.30
2023-01-20T16:01:30.477Z,20.00
2023-01-20T16:03:57.939Z,20.53
2023-01-20T16:06:31.232Z,19.47
2023-01-20T16:09:01.835Z,19.87
2023-01-20T16:11:29.129Z,19.90
2023-01-20T16:13:57.880Z,19.80
2023-01-20T16:16:26.798Z,19.33
2023-01-20T16:18:55.948Z,19.47
2023-01-20T16:21:23.124Z,19.73
2023-01-20T16:23:50.280Z,20.67
2023-01-20T16:26:22.836Z,20.13
2023-01-20T16:28:50.976Z,19.63
2023-01-20T16:31:19.249Z,19.33
2023-01-20T16:33:46.553Z,20.13
2023-01-20T16:36:16.505Z,19.87
2023-01-20T16:38:44.816Z,19.93
2023-01-20T16:41:25.171Z,19.10
2023-01-20T16:43:53.974Z,19.40
2023-01-20T16:46:23.988Z,18.83
2023-01-20T16:48:51.854Z,19.43
2023-01-20T16:51:25.727Z,19.30
2023-01-20T16:53:54.228Z,19.27
2023-01-20T16:56:23.553Z,18.73
2023-01-20T16:58:52.930Z,19.47
2023-01-20T17:01:24.939Z,19.47
2023-01-20T17:03:54.518Z,20.87
2023-01-20T17:06:27.596Z,20.27
2023-01-20T17:08:57.600Z,19.30
2023-01-20T17:11:30.311Z,20.40
2023-01-20T17:13:59.080Z,19.57
2023-01-20T17:16:26.456Z,19.33
2023-01-20T17:18:55.937Z,19.90
2023-01-20T17:21:24.479Z,20.80
2023-01-20T17:23:52.513Z,19.53
2023-01-20T17:26:20.561Z,19.60
2023-01-20T17:28:48.680Z,19.53
2023-01-20T17:31:15.876Z,18.33
2023-01-20T17:33:46.463Z,19.13
2023-01-20T17:36:14.004Z,19.10
2023-01-20T17:38:41.361Z,19.73
2023-01-20T17:41:09.617Z,19.60
2023-01-20T17:43:41.897Z,38.67
2023-01-20T17:46:29.795Z,19.50
2023-01-20T17:49:01.541Z,20.07
2023-01-20T17:51:29.795Z,20.63
2023-01-20T17:54:03.541Z,20.63
2023-01-20T17:56:31.376Z,22.27
2023-01-20T17:58:58.543Z,24.80
2023-01-20T18:01:28.123Z,24.33
2023-01-20T18:03:58.602Z,19.40
2023-01-20T18:06:27.663Z,20.80
2023-01-20T18:08:57.280Z,21.93
2023-01-20T18:11:27.094Z,22.43
2023-01-20T18:13:56.422Z,20.27
2023-01-20T18:16:29.536Z,19.67
2023-01-20T18:18:58.895Z,20.60
2023-01-20T18:21:29.680Z,20.30
2023-01-20T18:23:57.902Z,20.13
2023-01-20T18:26:29.309Z,19.83
2023-01-20T18:29:01.924Z,20.40
2023-01-20T18:31:31.807Z,19.87
2023-01-20T18:34:01.630Z,19.27
2023-01-20T18:36:31.972Z,19.40
2023-01-20T18:39:01.779Z,20.63
2023-01-20T18:41:31.136Z,19.90
2023-01-20T18:43:58.746Z,19.13
2023-01-20T18:46:27.305Z,17.40
2023-01-20T18:48:55.306Z,17.53
2023-01-20T18:51:26.260Z,18.60
2023-01-20T18:53:59.604Z,17.50
2023-01-20T18:56:28.369Z,16.50
2023-01-20T18:58:56.175Z,16.60
2023-01-20T19:01:27.876Z,16.90
2023-01-20T19:03:56.827Z,17.77
2023-01-20T19:06:26.618Z,18.47
2023-01-20T19:08:56.309Z,17.57
2023-01-20T19:11:26.507Z,17.53
2023-01-20T19:13:54.482Z,18.83
2023-01-20T19:16:24.271Z,17.83
2023-01-20T19:18:53.609Z,20.10
2023-01-20T19:21:21.502Z,18.50
2023-01-20T19:23:50.295Z,19.43
2023-01-20T19:26:18.649Z,18.47
2023-01-20T19:28:47.698Z,18.57
2023-01-20T19:31:17.691Z,18.30
2023-01-20T19:33:46.130Z,19.63
2023-01-20T19:36:15.499Z,20.10
2023-01-20T19:38:46.025Z,21.53
2023-01-20T19:41:19.561Z,19.80
2023-01-20T19:43:46.898Z,19.70
2023-01-20T19:46:16.377Z,26.13
2023-01-20T19:48:43.650Z,19.43
2023-01-20T19:51:15.986Z,28.60
2023-01-20T19:53:44.399Z,71.93
2023-01-20T19:56:16.927Z,19.30
2023-01-20T19:58:46.220Z,17.73
2023-01-20T20:01:19.827Z,21.30
2023-01-20T20:03:48.338Z,18.23
2023-01-20T20:06:23.427Z,26.30
2023-01-20T20:08:51.426Z,18.70
2023-01-20T20:11:18.811Z,19.43
2023-01-20T20:13:45.979Z,19.10
2023-01-20T20:16:13.269Z,18.67
2023-01-20T20:18:40.530Z,19.60
2023-01-20T20:21:08.377Z,19.83
2023-01-20T20:23:35.723Z,19.67
2023-01-20T20:26:02.991Z,20.23
2023-01-20T20:28:30.185Z,20.60
2023-01-20T20:31:05.335Z,21.90
2023-01-20T20:33:32.951Z,21.40
2023-01-20T20:36:00.260Z,21.03
2023-01-20T20:38:27.481Z,20.30
2023-01-20T20:40:58.782Z,19.33
2023-01-20T20:43:26.266Z,22.07
2023-01-20T20:45:53.743Z,20.97
2023-01-20T20:48:20.937Z,20.90
2023-01-20T20:50:48.171Z,21.30
2023-01-20T20:53:17.436Z,22.37
2023-01-20T20:55:44.780Z,21.97
2023-01-20T20:58:12.909Z,19.67
2023-01-20T21:00:40.214Z,20.67
2023-01-20T21:03:07.714Z,19.07
2023-01-20T21:05:35.695Z,19.17
2023-01-20T21:08:05.886Z,19.97
2023-01-20T21:10:34.375Z,19.57
2023-01-20T21:13:01.577Z,19.77
2023-01-20T21:15:30.367Z,21.10
2023-01-20T21:17:58.218Z,18.87
2023-01-20T21:20:26.725Z,16.33
2023-01-20T21:22:53.909Z,17.33
2023-01-20T21:25:23.924Z,16.90
2023-01-20T21:27:51.251Z,19.77
2023-01-20T21:30:19.264Z,16.67
2023-01-20T21:32:46.575Z,15.97
2023-01-20T21:35:13.905Z,16.73
2023-01-20T21:37:41.089Z,16.33
2023-01-20T21:40:08.931Z,17.00
2023-01-20T21:42:36.662Z,17.67
2023-01-20T21:45:04.015Z,18.10
2023-01-20T21:47:31.716Z,17.93
2023-01-20T21:50:17.586Z,21.57
2023-01-20T21:52:45.274Z,17.53
2023-01-20T21:55:16.542Z,16.80
2023-01-20T21:57:43.738Z,15.40
2023-01-20T22:00:11.949Z,15.77
2023-01-20T22:02:40.050Z,17.53
2023-01-20T22:05:07.600Z,17.93
2023-01-20T22:07:34.810Z,17.83
2023-01-20T22:10:02.125Z,15.13
2023-01-20T22:12:33.637Z,14.97
2023-01-20T22:15:02.441Z,16.47
2023-01-20T22:17:30.155Z,17.67
2023-01-20T22:19:57.518Z,15.40
2023-01-20T22:22:24.729Z,16.23
2023-01-20T22:24:53.154Z,16.03
2023-01-20T22:27:20.584Z,16.23
2023-01-20T22:29:47.789Z,15.03
2023-01-20T22:32:15.093Z,15.03
2023-01-20T22:34:42.341Z,15.63
2023-01-20T22:37:09.568Z,14.87
2023-01-20T22:39:36.785Z,15.17
2023-01-20T22:42:04.086Z,17.40
2023-01-20T22:44:31.277Z,17.20
2023-01-20T22:46:58.509Z,53.03
2023-01-20T22:49:25.979Z,16.70
2023-01-20T22:51:54.722Z,18.13
2023-01-20T22:54:21.956Z,16.77
2023-01-20T22:56:49.099Z,16.83
2023-01-20T22:59:16.304Z,17.17
2023-01-20T23:01:43.614Z,18.00
2023-01-20T23:04:10.982Z,16.77
2023-01-20T23:06:39.176Z,17.87
2023-01-20T23:09:10.385Z,17.17
2023-01-20T23:11:39.415Z,18.37
2023-01-20T23:14:07.253Z,18.40
2023-01-20T23:16:34.661Z,16.77
2023-01-20T23:19:01.865Z,18.27
2023-01-20T23:21:29.749Z,18.77
2023-01-20T23:23:57.049Z,19.00
2023-01-20T23:26:26.667Z,18.07
2023-01-20T23:28:55.084Z,16.97
2023-01-20T23:31:24.557Z,16.77
2023-01-20T23:33:53.627Z,17.10
2023-01-20T23:36:23.669Z,17.20
2023-01-20T23:38:53.899Z,16.50
2023-01-20T23:41:21.160Z,16.57
2023-01-20T23:43:48.732Z,16.03
2023-01-20T23:46:15.907Z,15.10
2023-01-20T23:48:45.885Z,16.47
2023-01-20T23:51:13.767Z,15.80
2023-01-20T23:53:41.432Z,16.50
2023-01-20T23:56:20.777Z,16.60
2023-01-20T23:58:48.358Z,17.13
